Latest Weather Observations for Yeppoon

IDQ60801

Issued at 10:02 am EST Sunday 5 July 2015 (issued every 30 minutes, with the page automatically refreshed every 10 minutes)

About weather observations | Map of weather stations | Latest weather observations for QLD | Other Formats
Station Details ID: 033294 Name: YEPPOON THE ESPLANADE Lat: -23.14 Lon: 150.75 Height: 5.5 m
Data from the previous 72 hours. | See also: Recent months at Yeppoon
Date/Time
EST
Temp
°C
App
Temp
°C
Dew
Point
Rel
Hum
%
Delta-T
°C
Wind Press
QNH
hPa
Press
MSL
hPa
Rain
since 9 am
mm
Dir
 
Spd
km/h
Gust
km/h
Spd
kts
Gust
kts
05/10:00am 19.7 17.1 13.2 66 3.7 SE 19 24 10 13 1022.2 1022.2 0.0
05/09:30am 19.3 18.1 13.9 71 3.1 SE 13 20 7 11 1022.1 1022.1 0.0
05/09:00am 18.6 17.4 13.9 74 2.7 SSE 13 19 7 10 1021.9 1021.9 0.0
05/08:30am 17.9 16.5 13.5 75 2.5 SSE 13 17 7 9 1021.9 1021.9 0.0
05/08:00am 17.2 15.8 13.5 79 2.1 S 13 17 7 9 1021.6 1021.6 0.0
05/07:30am 16.5 15.2 13.7 83 1.6 S 13 20 7 11 1021.2 1021.2 0.0
05/07:00am 15.8 15.9 14.0 89 1.0 SW 6 11 3 6 1020.9 1020.9 0.0
05/06:30am 15.7 15.6 13.9 89 1.0 WSW 7 11 4 6 1020.5 1020.5 0.0
05/06:00am 15.5 14.7 13.9 90 0.9 W 11 13 6 7 1020.4 1020.4 0.0
05/05:30am 15.9 15.1 14.1 89 1.0 W 11 13 6 7 1020.0 1020.0 0.0
05/05:00am 16.1 16.2 14.5 90 0.9 SW 7 11 4 6 1019.8 1019.8 0.0
05/04:30am 15.8 14.8 14.6 93 0.7 SSW 13 17 7 9 1019.6 1019.6 0.0
05/04:00am 15.9 15.3 14.5 91 0.8 SSW 11 13 6 7 1019.7 1019.7 0.0
05/03:30am 15.9 16.0 14.5 91 0.8 SW 7 9 4 5 1019.7 1019.7 0.0
05/03:00am 15.9 15.6 14.5 91 0.8 SW 9 11 5 6 1019.6 1019.6 0.0
05/02:30am 15.9 15.6 14.3 90 0.9 WSW 9 9 5 5 1019.9 1019.9 0.0
05/02:00am 16.2 16.3 14.4 89 1.0 WSW 7 9 4 5 1020.2 1020.2 0.0
05/01:30am 16.6 16.4 14.7 88 1.1 W 9 11 5 6 1020.4 1020.4 0.0
05/01:00am 16.9 16.8 15.0 88 1.1 SW 9 11 5 6 1020.6 1020.6 0.0
05/12:30am 17.3 17.6 15.1 87 1.3 SSW 7 9 4 5 1020.7 1020.7 0.0
05/12:00am 17.8 17.7 15.0 84 1.6 SW 9 11 5 6 1021.0 1021.0 0.0
 
Date/Time
EST
Temp
°C
App
Temp
°C
Dew
Point
Rel
Hum
%
Delta-T
°C
Wind Press
QNH
hPa
Press
MSL
hPa
Rain
since 9 am
mm
Dir
 
Spd
km/h
Gust
km/h
Spd
kts
Gust
kts
04/11:30pm 18.1 19.5 15.4 84 1.6 SSW 2 7 1 4 1021.2 1021.2 0.0
04/11:00pm 19.0 19.3 16.0 83 1.8 ENE 9 13 5 7 1021.3 1021.3 0.0
04/10:30pm 19.2 19.1 16.0 82 1.9 ENE 11 15 6 8 1021.4 1021.4 0.0
04/10:00pm 19.1 18.4 15.3 78 2.2 NE 13 17 7 9 1021.6 1021.6 0.0
04/09:30pm 19.2 18.4 16.0 82 1.9 ENE 15 19 8 10 1021.6 1021.6 0.0
04/09:00pm 19.4 18.3 15.3 77 2.4 E 15 24 8 13 1021.7 1021.7 0.0
04/08:30pm 19.6 18.3 14.8 74 2.8 ESE 15 22 8 12 1021.4 1021.4 0.0
04/08:00pm 19.5 18.6 14.9 75 2.7 ESE 13 19 7 10 1021.4 1021.4 0.0
04/07:30pm 19.4 18.1 14.9 75 2.6 ESE 15 20 8 11 1021.3 1021.3 0.0
04/07:00pm 19.5 18.0 15.4 77 2.4 E 17 22 9 12 1020.9 1020.9 0.0
04/06:30pm 19.4 18.6 15.1 76 2.5 ESE 13 20 7 11 1020.4 1020.4 0.0
04/06:00pm 19.2 18.0 15.1 77 2.4 ESE 15 20 8 11 1020.1 1020.1 0.0
04/05:30pm 19.3 17.8 15.2 77 2.4 E 17 26 9 14 1019.8 1019.8 0.0
04/05:00pm 19.5 18.2 14.7 74 2.8 ESE 15 22 8 12 1019.6 1019.6 0.0
04/04:30pm 19.9 18.2 14.6 71 3.1 E 17 24 9 13 1019.6 1019.6 0.0
04/04:00pm 20.1 18.5 14.0 68 3.5 ESE 15 22 8 12 1019.4 1019.4 0.0
04/03:30pm 20.4 18.5 14.2 67 3.6 ESE 17 24 9 13 1019.3 1019.3 0.0
04/03:00pm 20.6 18.2 13.8 65 3.9 ESE 19 24 10 13 1019.4 1019.4 0.0
04/02:30pm 20.5 18.4 13.7 65 3.9 ESE 17 24 9 13 1019.4 1019.4 0.0
04/02:00pm 20.3 17.9 13.9 66 3.7 ESE 19 24 10 13 1019.3 1019.3 0.0
04/01:30pm 20.3 18.6 13.7 66 3.8 ESE 15 22 8 12 1019.5 1019.5 0.0
04/01:00pm 20.0 17.3 12.9 63 4.0 ESE 19 24 10 13 1019.9 1019.9 0.0
04/12:30pm 20.2 17.9 13.1 63 4.0 ESE 17 26 9 14 1020.2 1020.2 0.0
04/12:00pm 20.2 17.5 12.9 63 4.1 ESE 19 28 10 15 1020.5 1020.5 0.0
04/11:30am 19.8 17.0 12.7 63 4.0 ESE 19 28 10 15 1020.9 1020.9 0.0
04/11:00am 19.7 17.2 12.3 62 4.1 ESE 17 22 9 12 1021.4 1021.4 0.0
04/10:30am 19.1 16.5 12.0 63 3.9 ESE 17 22 9 12 1021.5 1021.5 0.0
04/10:00am 18.4 15.2 11.2 63 3.9 SE 19 24 10 13 1021.8 1021.8 0.0
04/09:30am 17.5 15.4 11.2 66 3.4 S 13 19 7 10 1021.9 1021.9 0.0
04/09:00am 16.3 14.6 10.0 66 3.3 SSE 9 13 5 7 1022.1 1022.1 0.0
04/08:30am 15.3 12.2 8.8 65 3.3 S 15 20 8 11 1022.1 1022.1 0.0
04/08:00am 14.5 12.0 8.1 65 3.2 SSW 11 17 6 9 1022.2 1022.2 0.0
04/07:30am 13.8 11.5 7.5 66 3.1 SW 9 13 5 7 1022.0 1022.0 0.0
04/07:00am 13.2 10.7 6.7 64 3.1 SW 9 13 5 7 1021.6 1021.6 0.0
04/06:30am 12.3 9.4 6.4 67 2.8 SSW 11 15 6 8 1021.4 1021.4 0.0
04/06:00am 12.5 9.9 6.1 65 3.0 SW 9 15 5 8 1021.0 1021.0 0.0
04/05:30am 12.2 9.7 6.5 68 2.7 SSW 9 13 5 7 1020.8 1020.8 0.0
04/05:00am 12.4 9.9 6.7 68 2.7 SSW 9 15 5 8 1020.5 1020.5 0.0
04/04:30am 12.7 9.4 6.6 66 2.9 SSW 13 20 7 11 1020.3 1020.3 0.0
04/04:00am 12.7 9.8 6.4 65 3.0 SSW 11 17 6 9 1020.4 1020.4 0.0
04/03:30am 12.4 9.6 7.0 69 2.6 SSW 11 13 6 7 1020.4 1020.4 0.0
04/03:00am 12.5 9.8 7.3 70 2.5 SSW 11 15 6 8 1020.4 1020.4 0.0
04/02:30am 13.2 10.8 7.2 67 2.9 SSW 9 13 5 7 1020.5 1020.5 0.0
04/02:00am 12.7 10.4 7.6 71 2.5 SSW 9 13 5 7 1020.5 1020.5 0.0
04/01:30am 13.2 11.0 7.7 69 2.7 SSW 9 13 5 7 1021.2 1021.2 0.0
04/01:00am 14.0 11.4 7.7 66 3.1 SSW 11 17 6 9 1021.3 1021.3 0.0
04/12:30am 14.5 12.2 9.0 69 2.8 S 11 17 6 9 1021.4 1021.4 0.0
04/12:00am 14.9 12.7 9.4 69 2.8 S 11 13 6 7 1021.5 1021.5 0.0
 
Date/Time
EST
Temp
°C
App
Temp
°C
Dew
Point
Rel
Hum
%
Delta-T
°C
Wind Press
QNH
hPa
Press
MSL
hPa
Rain
since 9 am
mm
Dir
 
Spd
km/h
Gust
km/h
Spd
kts
Gust
kts
03/11:30pm 14.8 12.2 9.3 69 2.8 S 13 17 7 9 1021.7 1021.7 0.0
03/11:00pm 13.5 11.6 9.1 75 2.2 SW 9 13 5 7 1021.9 1021.9 0.0
03/10:30pm 13.0 11.1 9.0 77 2.0 SW 9 11 5 6 1022.0 1022.0 0.0
03/10:00pm 13.4 11.9 9.0 75 2.2 SW 7 9 4 5 1022.0 1022.0 0.0
03/09:30pm 13.4 11.4 8.8 74 2.3 SW 9 11 5 6 1022.0 1022.0 0.0
03/09:00pm 13.0 11.6 9.7 80 1.7 WSW 7 9 4 5 1022.0 1022.0 0.0
03/08:30pm 13.2 11.5 9.7 79 1.8 W 9 11 5 6 1022.0 1022.0 0.0
03/08:00pm 13.6 12.0 10.1 79 1.8 W 9 13 5 7 1021.8 1021.8 0.0
03/07:30pm 14.1 12.1 10.0 76 2.1 W 11 15 6 8 1021.6 1021.6 0.0
03/07:00pm 14.5 13.3 10.3 76 2.2 WSW 7 11 4 6 1021.5 1021.5 0.0
03/06:30pm 15.6 14.5 10.7 72 2.6 S 7 9 4 5 1021.0 1021.0 0.0
03/06:00pm 17.3 15.4 10.5 64 3.6 ESE 11 17 6 9 1020.9 1020.9 0.0
03/05:30pm 17.1 15.6 10.5 65 3.5 SE 9 19 5 10 1020.7 1020.7 0.0
03/05:00pm 17.4 14.5 9.8 61 4.0 ESE 15 20 8 11 1020.6 1020.6 0.0
03/04:30pm 17.6 14.4 8.4 55 4.7 ESE 15 20 8 11 1020.3 1020.3 0.0
03/04:00pm 17.5 14.3 8.5 55 4.6 SE 15 24 8 13 1019.9 1019.9 0.0
03/03:30pm 17.5 13.2 8.0 53 4.8 E 20 28 11 15 1019.7 1019.7 0.0
03/03:00pm 17.7 13.4 7.1 50 5.3 ESE 19 24 10 13 1019.6 1019.6 0.0
03/02:30pm 17.5 12.6 4.0 40 6.3 ESE 19 24 10 13 1019.6 1019.6 0.0
03/02:00pm 17.6 12.7 3.9 40 6.4 ESE 19 26 10 14 1019.6 1019.6 0.0
03/01:30pm 17.3 12.2 2.8 38 6.6 ESE 19 28 10 15 1019.8 1019.8 0.0
03/01:00pm 17.2 11.7 2.0 36 6.8 SE 20 28 11 15 1019.9 1019.9 0.0
03/12:30pm 17.5 12.3 2.2 36 6.9 ESE 19 24 10 13 1020.5 1020.5 0.0
03/12:00pm 17.7 12.6 0.8 32 7.4 ESE 17 24 9 13 1020.9 1020.9 0.0
03/11:30am 17.1 12.8 1.2 34 7.0 SSE 13 22 7 12 1021.3 1021.3 0.0
03/11:00am 17.1 14.2 2.8 38 6.5 SSW 7 13 4 7 1021.8 1021.8 0.0
03/10:30am 16.2 13.5 3.5 42 5.8 SSE 7 13 4 7 1022.0 1022.0 0.0
03/10:00am 15.3 13.5 5.4 51 4.7 SW 4 13 2 7 1022.2 1022.2 0.0
03/09:30am 13.7 10.2 3.7 51 4.5 WSW 11 17 6 9 1022.0 1022.0 0.0
03/09:00am 12.4 9.1 4.7 59 3.5 W 11 15 6 8 1022.1 1022.1 0.2
03/08:30am 11.7 8.0 4.6 62 3.2 WSW 13 17 7 9 1021.8 1021.8 0.2
03/08:00am 10.8 7.2 5.1 68 2.6 WSW 13 19 7 10 1021.4 1021.4 0.2
03/07:30am 10.0 7.3 5.4 73 2.1 WSW 9 11 5 6 1021.4 1021.4 0.2
03/07:00am 9.2 6.4 5.2 76 1.8 WSW 9 11 5 6 1021.1 1021.1 0.2
03/06:30am 9.7 6.4 4.3 69 2.4 WSW 11 15 6 8 1020.5 1020.5 0.2
03/06:00am 10.7 7.3 3.9 63 3.0 WSW 11 13 6 7 1020.2 1020.2 0.2
03/05:30am 10.8 7.5 4.3 64 2.9 WSW 11 13 6 7 1019.8 1019.8 0.2
03/05:00am 11.7 8.2 3.5 57 3.6 SW 11 17 6 9 1019.4 1019.4 0.2
03/04:30am 12.0 9.0 4.2 59 3.5 SW 9 17 5 9 1019.2 1019.2 0.2
03/04:00am 12.4 8.7 4.5 58 3.6 SSW 13 17 7 9 1019.3 1019.3 0.2
03/03:30am 12.8 10.1 5.5 61 3.4 SW 9 13 5 7 1019.5 1019.5 0.2
03/03:00am 13.2 10.5 5.5 59 3.6 SW 9 11 5 6 1019.5 1019.5 0.2
03/02:30am 13.9 10.8 5.4 56 4.0 SW 11 17 6 9 1019.4 1019.4 0.2
03/02:00am 14.1 11.1 5.9 57 3.9 SSW 11 19 6 10 1019.8 1019.8 0.2
03/01:30am 14.8 10.9 5.5 53 4.4 SSW 15 22 8 12 1020.0 1020.0 0.2
03/01:00am 14.9 11.4 5.4 53 4.5 SSW 13 22 7 12 1020.3 1020.3 0.2
03/12:30am 15.1 11.8 6.4 56 4.2 SSW 13 19 7 10 1020.6 1020.6 0.2
03/12:00am 15.7 11.2 6.2 53 4.6 S 19 24 10 13 1020.6 1020.6 0.2
 
Date/Time
EST
Temp
°C
App
Temp
°C
Dew
Point
Rel
Hum
%
Delta-T
°C
Wind Press
QNH
hPa
Press
MSL
hPa
Rain
since 9 am
mm
Dir
 
Spd
km/h
Gust
km/h
Spd
kts
Gust
kts
02/11:30pm 16.0 11.5 6.0 51 4.8 S 19 26 10 14 1020.7 1020.7 0.2
02/11:00pm 15.8 11.8 6.8 55 4.4 S 17 24 9 13 1020.9 1020.9 0.2
02/10:30pm 13.1 11.3 7.8 70 2.6 WSW 7 11 4 6 1021.1 1021.1 0.2
02/10:00pm 13.8 11.6 7.7 66 3.0 W 9 13 5 7 1021.0 1021.0 0.2
02/09:30pm 14.0 11.3 7.2 63 3.3 W 11 13 6 7 1021.2 1021.2 0.2
02/09:00pm 14.4 11.8 7.7 64 3.3 W 11 13 6 7 1020.9 1020.9 0.2
02/08:30pm 14.2 12.2 8.6 69 2.8 W 9 13 5 7 1020.7 1020.7 0.2
02/08:00pm 14.6 13.4 10.2 75 2.3 SW 7 9 4 5 1020.5 1020.5 0.2
02/07:30pm 15.3 13.8 9.2 67 3.1 WSW 7 9 4 5 1020.3 1020.3 0.2
02/07:00pm 16.0 14.1 9.0 63 3.6 W 9 11 5 6 1019.9 1019.9 0.2
02/06:30pm 17.0 15.3 9.7 62 3.8 W 9 13 5 7 1019.3 1019.3 0.2
02/06:00pm 18.3 16.3 8.6 53 5.0 SSW 9 9 5 5 1018.9 1018.9 0.2
02/05:30pm 19.5 17.5 8.5 49 5.7 SSW 9 11 5 6 1018.6 1018.6 0.2
02/05:00pm 21.3 19.1 7.8 41 7.0 SSW 9 11 5 6 1018.4 1018.4 0.2
02/04:30pm 22.5 19.8 7.2 37 7.9 SSW 11 19 6 10 1018.3 1018.3 0.2
02/04:00pm 23.0 18.3 5.1 31 8.9 SW 19 30 10 16 1018.3 1018.3 0.2
02/03:30pm 23.5 18.0 4.1 28 9.5 SW 22 32 12 17 1018.4 1018.4 0.2
02/03:00pm 23.9 18.9 4.5 28 9.6 SSW 20 32 11 17 1018.4 1018.4 0.2
02/02:30pm 24.3 19.4 5.2 29 9.6 SW 20 32 11 17 1018.2 1018.2 0.2
02/02:00pm 24.1 20.2 7.2 33 8.8 SSW 17 30 9 16 1018.4 1018.4 0.2
02/01:30pm 23.8 19.2 6.7 33 8.8 SSW 20 30 11 16 1018.7 1018.7 0.2
02/01:00pm 24.0 19.7 6.8 33 8.9 S 19 28 10 15 1019.1 1019.1 0.2
02/12:30pm 23.6 19.6 6.7 33 8.7 SSW 17 28 9 15 1019.8 1019.8 0.2
02/12:00pm 22.9 19.7 10.0 44 7.0 S 17 26 9 14 1020.4 1020.4 0.2
02/11:30am 22.2 19.7 10.9 48 6.2 SSE 15 20 8 11 1020.9 1020.9 0.2
02/11:00am 21.4 19.9 13.0 58 4.8 NE 13 15 7 8 1021.7 1021.7 0.0
02/10:30am 20.7 19.9 12.9 61 4.4 SW 9 13 5 7 1022.3 1022.3 0.0

Other Formats:

Comma delimited format used in spreadsheet applications
http://www.bom.gov.au/fwo/IDQ60801/IDQ60801.94373.axf

JavaScript Object Notation format (JSON) in row-major order
http://www.bom.gov.au/fwo/IDQ60801/IDQ60801.94373.json